HK-0004 weather

Ping Chau Helipad
Ping Chau Island, Hong Kong

Public forecast

Using degrees Celsius for public forecast. Weather courtesy of forecast.io.

METAR (pilot weather report)

Closest report is Hong Kong International Airport, 31.9 nm (59.1 km) WSW. Retrieved 2019/05/27 06:30 UTC (0 seconds ago):

VHHH 270630Z 25005KT 220V280 9000 -SHRA FEW005 SCT025 26/24 Q1008 TEMPO 2500 TSRA SHRA FEW008 SCT015CB BKN040

TAF (pilot weather forecast)

Closest forecast is Hong Kong International Airport, 31.9 nm (59.1 km) WSW. Retrieved 2019/05/27 06:21 UTC (8 minutes ago):

TAF VHHH 270500Z 2706/2812 15005KT 7000 FEW010 SCT025 TX27/2706Z TX29/2806Z TN24/2722Z TEMPO 2706/2710 24010KT 2500 TSRA SHRA FEW008 SCT015CB BKN040 TEMPO 2710/2715 21010KT 3500 SHRA FEW010CB SCT020 TEMPO 2715/2721 VRB15G25KT 2500 TSRA SHRA FEW008 SCT015CB BKN040 TEMPO 2800/2806 VRB15G25KT 2500 TSRA SHRA FEW008 SCT015CB BKN040 TEMPO 2806/2812 3500 SHRA FEW010CB SCT020